首页
METAR-TAF:

METAR-TAF

机场 :

安曼民航機場

安曼, 约旦

纬度: 31-59N, 经度: 035-59E, 海拔: 767米

当前天气观测

该预报发布于1小时和0分钟前的23:00 UTC
风速3节,风向北转东北
温度 21°C
湿度 53%
气压 1014 hPa
能見度: 8000

METAR: OJAM 192300Z 03003KT 8000 NSC 21/11 Q1014 NOSIG

时间: 03:00 (00:00 UTC)

预报

该预报发布于2小时和20分钟前的21:40 UTC
预报有效从20日的 00点(UTC)到 21日的 06点(UTC)
风速4节,风向西转西北
能見度: 6000
短暂存在
从 20日的 02点(UTC)到 20日的 07点(UTC)
能見度: 4000
成为
从 20日的 08点(UTC)到 20日的 10点(UTC)
风速14节,风向西转西北
能見度: 5000

TAF: OJAM 192140Z 2000/2106 29004KT 6000 NSC TEMPO 2002/2007 4000 HZ BECMG 2008/2010 30014KT 5000 HZ NSC

超过4000个机场的气象观测和天气预报(METAR&TAF报告)。

可查询的气象台以黄色和红色小点在地图上表示。

将鼠标移到小点上方,可查看气象台名称。

然后点击查看天气观测和预报。

如需切换地图:点击带黑十字的绿色按钮放大地图;点击带横线的绿色按钮缩小地图;或者点击绿色箭头查看邻近地区的地图。


METAR-TAF: